Time;durP1;ratioP1;P1;durP2;ratioP2;P2;SDS_P1;SDS_P2;PMS_P1;PMS_P2;Temp;Humidity;BMP_temperature;BMP_pressure;BME280_temperature;BME280_humidity;BME280_pressure;Samples;Min_cycle;Max_cycle;Signal;HPM_P1;HPM_P2
2022/08/14 00:01:33;;;;;;;;;;;22.20;99.90;;;;;;4976767;28;19961;-95
2022/08/14 00:03:59;;;;;;;;;;;22.30;99.90;;;;;;4984605;28;19925;-94
2022/08/14 00:06:24;;;;;;;;;;;22.30;99.90;;;;;;4975495;28;19905;-94
2022/08/14 00:08:50;;;;;;;;;;;22.00;99.90;;;;;;4973485;28;20470;-93
2022/08/14 00:11:16;;;;;;;;;;;22.80;99.90;;;;;;4988225;28;19912;-94
2022/08/14 00:13:41;;;;;;;;;;;22.00;99.90;;;;;;4975360;28;20331;-91
2022/08/14 00:16:08;;;;;;;;;;;22.50;99.90;;;;;;4973329;28;19941;-90
2022/08/14 00:18:33;;;;;;;;;;;22.80;99.90;;;;;;4991667;28;20010;-91
2022/08/14 00:20:59;;;;;;;;;;;22.40;99.90;;;;;;4971793;28;20522;-89
2022/08/14 00:23:25;;;;;;;;;;;22.40;99.90;;;;;;4962043;28;20390;-89
2022/08/14 00:25:52;;;;;;;;;;;22.30;99.90;;;;;;4991402;28;20012;-90
2022/08/14 00:28:20;;;;;;;;;;;22.70;99.90;;;;;;4990792;28;19906;-91
2022/08/14 00:30:46;;;;;;;;;;;22.60;99.90;;;;;;4977975;28;19952;-90
2022/08/14 00:33:11;;;;;;;;;;;22.40;99.90;;;;;;4990242;28;19909;-90
2022/08/14 00:35:37;;;;;;;;;;;22.70;99.90;;;;;;4990204;28;19909;-94
2022/08/14 00:38:03;;;;;;;;;;;22.80;99.90;;;;;;4971688;28;19913;-89
2022/08/14 00:40:28;;;;;;;;;;;22.80;99.90;;;;;;4964167;28;19945;-89
2022/08/14 00:42:54;;;;;;;;;;;22.70;99.90;;;;;;4977927;28;19964;-88
2022/08/14 00:45:19;;;;;;;;;;;22.50;99.90;;;;;;4989798;28;19905;-89
2022/08/14 00:47:46;;;;;;;;;;;22.60;99.90;;;;;;4989667;28;19952;-89
2022/08/14 00:50:13;;;;;;;;;;;22.40;99.90;;;;;;4972116;28;19917;-90
2022/08/14 00:52:39;;;;;;;;;;;22.50;99.90;;;;;;4989842;28;19910;-89
2022/08/14 00:55:05;;;;;;;;;;;22.60;99.90;;;;;;4972356;28;19909;-89
2022/08/14 00:57:32;;;;;;;;;;;22.50;99.90;;;;;;4990146;28;19972;-90
2022/08/14 00:59:59;;;;;;;;;;;22.50;99.90;;;;;;4971671;28;19956;-91
2022/08/14 01:02:27;;;;;;;;;;;22.60;99.90;;;;;;4990112;28;19950;-88
2022/08/14 01:04:54;;;;;;;;;;;22.70;99.90;;;;;;4972059;28;19906;-90
2022/08/14 01:07:21;;;;;;;;;;;22.80;99.90;;;;;;4989867;28;20773;-90
2022/08/14 01:09:50;;;;;;;;;;;22.60;99.90;;;;;;4978572;28;19910;-91
2022/08/14 01:12:16;;;;;;;;;;;22.50;99.90;;;;;;4972291;28;19914;-91
2022/08/14 01:14:42;;;;;;;;;;;22.40;99.90;;;;;;4974376;28;19917;-91
2022/08/14 01:17:08;;;;;;;;;;;22.40;99.90;;;;;;4973692;28;19910;-91
2022/08/14 01:22:17;;;;;;;;;;;22.40;99.90;;;;;;4991359;28;19924;-90
2022/08/14 01:24:43;;;;;;;;;;;22.50;99.90;;;;;;4992341;28;19910;-92
2022/08/14 01:27:17;;;;;;;;;;;22.50;99.90;;;;;;4974886;28;19909;-93
2022/08/14 01:29:44;;;;;;;;;;;22.30;99.90;;;;;;4992421;28;20037;-93
2022/08/14 01:32:10;;;;;;;;;;;22.30;99.90;;;;;;4992112;28;20371;-92
2022/08/14 01:34:36;;;;;;;;;;;22.20;99.90;;;;;;4974274;28;19905;-90
2022/08/14 01:37:01;;;;;;;;;;;22.30;99.90;;;;;;4963682;28;20265;-92
2022/08/14 01:39:27;;;;;;;;;;;22.20;99.90;;;;;;4972124;28;20408;-92
2022/08/14 01:41:57;;;;;;;;;;;22.20;99.90;;;;;;4974738;28;19944;-93
2022/08/14 01:44:25;;;;;;;;;;;22.10;99.90;;;;;;4974408;28;19917;-92
2022/08/14 01:46:53;;;;;;;;;;;22.10;99.90;;;;;;4974088;28;19905;-91
2022/08/14 01:49:19;;;;;;;;;;;22.30;99.90;;;;;;4991891;28;19910;-92
2022/08/14 01:51:46;;;;;;;;;;;22.40;99.90;;;;;;4985159;28;19914;-94
2022/08/14 01:54:19;;;;;;;;;;;22.80;99.90;;;;;;4985185;28;19921;-94
2022/08/14 01:56:45;;;;;;;;;;;22.80;99.90;;;;;;4992401;28;20012;-93
2022/08/14 01:59:31;;;;;;;;;;;22.90;99.90;;;;;;4974327;28;20004;-94
2022/08/14 02:01:58;;;;;;;;;;;22.90;99.90;;;;;;4991903;28;20013;-92
2022/08/14 02:04:25;;;;;;;;;;;22.80;99.90;;;;;;4991505;28;19944;-93
2022/08/14 02:06:51;;;;;;;;;;;22.70;99.90;;;;;;4991598;28;20036;-93
2022/08/14 02:09:17;;;;;;;;;;;22.60;99.90;;;;;;4972758;28;20674;-92
2022/08/14 02:11:43;;;;;;;;;;;22.80;99.90;;;;;;4971132;28;19909;-92
2022/08/14 02:14:09;;;;;;;;;;;22.90;99.90;;;;;;4961873;28;19952;-93
2022/08/14 02:16:37;;;;;;;;;;;23.00;99.90;;;;;;4973976;28;19913;-93
2022/08/14 02:19:04;;;;;;;;;;;23.00;99.90;;;;;;4972561;28;20710;-90
2022/08/14 02:21:31;;;;;;;;;;;23.10;99.90;;;;;;4990408;28;19960;-91
2022/08/14 02:23:58;;;;;;;;;;;23.00;99.90;;;;;;4987323;28;19956;-91
2022/08/14 02:26:27;;;;;;;;;;;22.90;99.90;;;;;;4960310;28;19960;-90
2022/08/14 02:28:54;;;;;;;;;;;22.90;99.90;;;;;;4971437;28;20287;-90
2022/08/14 02:31:19;;;;;;;;;;;22.80;99.90;;;;;;4959500;28;19917;-90
2022/08/14 02:33:46;;;;;;;;;;;22.90;99.90;;;;;;4989387;28;19905;-90
2022/08/14 02:36:12;;;;;;;;;;;22.90;99.90;;;;;;4972354;28;19946;-91
2022/08/14 02:38:39;;;;;;;;;;;22.80;99.90;;;;;;4989433;28;19996;-91
2022/08/14 02:41:08;;;;;;;;;;;22.90;99.90;;;;;;4971468;28;19923;-90
2022/08/14 02:43:34;;;;;;;;;;;22.90;99.90;;;;;;4989642;28;19940;-91
2022/08/14 02:46:00;;;;;;;;;;;22.80;99.90;;;;;;4971231;28;20401;-90
2022/08/14 02:48:30;;;;;;;;;;;22.70;99.90;;;;;;4989882;28;19926;-90
2022/08/14 02:50:57;;;;;;;;;;;22.80;99.90;;;;;;4989713;28;19936;-91
2022/08/14 02:53:22;;;;;;;;;;;22.90;99.90;;;;;;4989565;28;20005;-93
2022/08/14 02:55:48;;;;;;;;;;;22.80;99.90;;;;;;4972558;28;20434;-91
2022/08/14 02:58:14;;;;;;;;;;;22.90;99.90;;;;;;4972289;28;19976;-90
2022/08/14 03:00:40;;;;;;;;;;;22.90;99.90;;;;;;4990017;28;19932;-91
2022/08/14 03:03:06;;;;;;;;;;;22.80;99.90;;;;;;4972215;28;20658;-91
2022/08/14 03:05:31;;;;;;;;;;;22.80;99.90;;;;;;4972482;28;19906;-92
2022/08/14 03:08:04;;;;;;;;;;;22.80;99.90;;;;;;4989922;28;19909;-91
2022/08/14 03:10:30;;;;;;;;;;;22.80;99.90;;;;;;4985895;28;20021;-92
2022/08/14 03:12:56;;;;;;;;;;;22.80;99.90;;;;;;4989595;28;20405;-92
2022/08/14 03:15:21;;;;;;;;;;;22.90;99.90;;;;;;4989939;28;19913;-91
2022/08/14 03:17:51;;;;;;;;;;;22.80;99.90;;;;;;4989828;28;20367;-91
2022/08/14 03:20:17;;;;;;;;;;;22.70;99.90;;;;;;4990290;28;19909;-92
2022/08/14 03:22:43;;;;;;;;;;;22.40;99.90;;;;;;4973870;28;19921;-90
2022/08/14 03:25:10;;;;;;;;;;;22.40;99.90;;;;;;4976643;28;20436;-92
2022/08/14 03:27:36;;;;;;;;;;;22.20;99.90;;;;;;4962945;28;19906;-93
2022/08/14 03:30:03;;;;;;;;;;;22.10;99.90;;;;;;4993810;28;19979;-92
2022/08/14 03:32:32;;;;;;;;;;;22.10;99.90;;;;;;4994069;28;19944;-92
2022/08/14 03:34:58;;;;;;;;;;;22.40;99.90;;;;;;4976232;28;19916;-90
2022/08/14 03:37:25;;;;;;;;;;;22.50;99.90;;;;;;4994020;28;20004;-91
2022/08/14 03:39:54;;;;;;;;;;;22.50;99.90;;;;;;4993597;28;20705;-91
2022/08/14 03:42:22;;;;;;;;;;;22.50;99.90;;;;;;4993862;28;19972;-92
2022/08/14 03:44:48;;;;;;;;;;;22.50;99.90;;;;;;4993126;28;19909;-90
2022/08/14 03:47:13;;;;;;;;;;;22.50;99.90;;;;;;4975493;28;19913;-91
2022/08/14 03:49:39;;;;;;;;;;;22.30;99.90;;;;;;4992849;28;19906;-90
2022/08/14 03:52:05;;;;;;;;;;;22.50;99.90;;;;;;4975521;28;19949;-91
2022/08/14 03:54:34;;;;;;;;;;;22.40;99.90;;;;;;4973846;28;19910;-90
2022/08/14 03:57:00;;;;;;;;;;;22.20;99.90;;;;;;4970035;28;19961;-91
2022/08/14 03:59:26;;;;;;;;;;;22.20;99.90;;;;;;4973180;28;20383;-91
2022/08/14 04:01:52;;;;;;;;;;;22.30;99.90;;;;;;4979263;28;19924;-91
2022/08/14 04:04:17;;;;;;;;;;;22.30;99.90;;;;;;4992873;28;19906;-90
2022/08/14 04:06:43;;;;;;;;;;;22.30;99.90;;;;;;4979415;28;19905;-91
2022/08/14 04:09:08;;;;;;;;;;;22.40;99.90;;;;;;4982979;28;19917;-91
2022/08/14 04:11:35;;;;;;;;;;;22.20;99.90;;;;;;4971596;28;19910;-90
2022/08/14 04:14:01;;;;;;;;;;;22.20;99.90;;;;;;4972075;28;19961;-90
2022/08/14 04:16:27;;;;;;;;;;;21.90;99.90;;;;;;4974102;28;19949;-92
2022/08/14 04:18:53;;;;;;;;;;;21.90;99.90;;;;;;4974003;28;19933;-91
2022/08/14 04:21:21;;;;;;;;;;;21.90;99.90;;;;;;4981759;28;19918;-90
2022/08/14 04:23:48;;;;;;;;;;;22.10;99.90;;;;;;4977488;28;19906;-91
2022/08/14 04:26:15;;;;;;;;;;;22.10;99.90;;;;;;4979229;28;19905;-90
2022/08/14 04:28:41;;;;;;;;;;;22.10;99.90;;;;;;4978087;28;19910;-91
2022/08/14 04:31:07;;;;;;;;;;;22.00;99.90;;;;;;4978378;28;20450;-91
2022/08/14 04:33:33;;;;;;;;;;;21.90;99.90;;;;;;4991164;28;19913;-93
2022/08/14 04:35:58;;;;;;;;;;;21.90;99.90;;;;;;4978327;28;20355;-90
2022/08/14 04:43:52;;;;;;;;;;;21.60;99.90;;;;;;4972497;28;20294;-91
2022/08/14 04:46:19;;;;;;;;;;;21.50;99.90;;;;;;4971376;28;19906;-91
2022/08/14 04:48:45;;;;;;;;;;;21.50;99.90;;;;;;4972961;28;19910;-91
2022/08/14 04:51:12;;;;;;;;;;;21.60;99.90;;;;;;4974929;28;20363;-90
2022/08/14 04:53:41;;;;;;;;;;;21.60;99.90;;;;;;4984363;28;19910;-91
2022/08/14 04:56:07;;;;;;;;;;;21.60;99.90;;;;;;4971488;28;19922;-90
2022/08/14 04:58:33;;;;;;;;;;;21.50;99.90;;;;;;4984759;28;19914;-89
2022/08/14 05:00:59;;;;;;;;;;;21.50;99.90;;;;;;4972406;28;19998;-89
2022/08/14 05:03:28;;;;;;;;;;;21.50;99.90;;;;;;4978862;28;20338;-96
2022/08/14 05:05:55;;;;;;;;;;;21.60;99.90;;;;;;4981025;28;19910;-93
2022/08/14 05:08:22;;;;;;;;;;;21.40;99.90;;;;;;4975291;28;19997;-94
2022/08/14 05:10:52;;;;;;;;;;;21.10;99.90;;;;;;4987955;28;20371;-94
2022/08/14 05:13:22;;;;;;;;;;;21.30;99.90;;;;;;4987891;28;20366;-95
2022/08/14 05:15:48;;;;;;;;;;;21.50;99.90;;;;;;4994037;28;19933;-95
2022/08/14 05:18:33;;;;;;;;;;;21.50;99.90;;;;;;4982090;28;19910;-95
2022/08/14 05:21:06;;;;;;;;;;;21.60;99.90;;;;;;4982082;28;19914;-94
2022/08/14 05:23:41;;;;;;;;;;;21.90;99.90;;;;;;4994740;28;20850;-95
2022/08/14 05:26:16;;;;;;;;;;;21.70;99.90;;;;;;4978639;28;19909;-95
2022/08/14 05:29:06;;;;;;;;;;;22.00;99.90;;;;;;4981051;28;19910;-95
2022/08/14 05:31:59;;;;;;;;;;;22.10;99.90;;;;;;4977087;28;19910;-95
2022/08/14 05:34:48;;;;;;;;;;;22.20;99.90;;;;;;4899342;29;19915;-94
2022/08/14 05:37:47;;;;;;;;;;;22.30;99.90;;;;;;4915844;29;19907;-95
2022/08/14 05:40:12;;;;;;;;;;;20.70;99.90;;;;;;4910299;29;19915;-96
2022/08/14 05:45:48;;;;;;;;;;;;;;;;;;;;;
2022/08/14 05:48:32;;;;;;;;;;;20.20;99.90;;;;;;4889140;29;19911;-94
2022/08/14 05:51:45;;;;;;;;;;;20.70;99.90;;;;;;4901041;29;19919;-96
2022/08/14 06:00:26;;;;;;;;;;;21.70;99.90;;;;;;4871397;29;19921;-93
2022/08/14 06:02:59;;;;;;;;;;;21.60;99.90;;;;;;4893836;29;19987;-95
2022/08/14 06:05:25;;;;;;;;;;;21.00;99.90;;;;;;4887345;29;19911;-95
2022/08/14 06:07:51;;;;;;;;;;;21.50;99.90;;;;;;4888685;29;19915;-94
2022/08/14 06:10:37;;;;;;;;;;;22.30;99.90;;;;;;4865267;29;19911;-94
2022/08/14 06:13:02;;;;;;;;;;;22.20;99.90;;;;;;4901730;29;19911;-90
2022/08/14 06:15:32;;;;;;;;;;;21.30;99.90;;;;;;4910080;29;20403;-95
2022/08/14 06:18:10;;;;;;;;;;;20.60;99.90;;;;;;4918306;29;19907;-96
2022/08/14 06:21:19;;;;;;;;;;;19.90;99.90;;;;;;4896590;29;19968;-96
2022/08/14 06:24:20;;;;;;;;;;;;;;;;;;;;;
2022/08/14 06:29:49;;;;;;;;;;;19.60;99.90;;;;;;5006567;23;19937;-86
2022/08/14 06:32:15;;;;;;;;;;;19.80;99.90;;;;;;4985380;28;19910;-84
2022/08/14 06:34:40;;;;;;;;;;;19.90;99.90;;;;;;4968297;28;19913;-84
2022/08/14 06:37:06;;;;;;;;;;;20.00;99.90;;;;;;4998010;28;19913;-89
2022/08/14 06:39:32;;;;;;;;;;;19.80;99.90;;;;;;4981960;28;21263;-85
2022/08/14 06:41:58;;;;;;;;;;;19.80;99.90;;;;;;4984851;28;20634;-82
2022/08/14 06:44:24;;;;;;;;;;;19.80;99.90;;;;;;4984872;28;19980;-81
2022/08/14 06:46:50;;;;;;;;;;;19.40;99.90;;;;;;4977823;28;19909;-80
2022/08/14 06:49:15;;;;;;;;;;;19.40;99.90;;;;;;4980000;28;20413;-85
2022/08/14 06:51:45;;;;;;;;;;;19.40;99.90;;;;;;4978362;28;19920;-85
2022/08/14 06:54:11;;;;;;;;;;;19.50;99.90;;;;;;4977507;28;19913;-82
2022/08/14 06:56:37;;;;;;;;;;;19.70;99.90;;;;;;4981290;28;19909;-81
2022/08/14 06:59:02;;;;;;;;;;;19.90;99.90;;;;;;4958183;28;19918;-86
2022/08/14 07:06:56;;;;;;;;;;;19.70;99.90;;;;;;4983456;28;20457;-81
2022/08/14 07:09:22;;;;;;;;;;;18.90;99.90;;;;;;4984456;28;19914;-78
2022/08/14 07:11:48;;;;;;;;;;;18.50;99.90;;;;;;4978525;28;19929;-80
2022/08/14 07:14:13;;;;;;;;;;;18.40;99.90;;;;;;4983371;28;19914;-84
2022/08/14 07:16:39;;;;;;;;;;;18.50;99.90;;;;;;4982882;28;20483;-78
2022/08/14 07:19:07;;;;;;;;;;;18.80;99.90;;;;;;4971676;28;20370;-77
2022/08/14 07:21:32;;;;;;;;;;;18.70;99.90;;;;;;4984490;28;19910;-77
2022/08/14 07:23:58;;;;;;;;;;;18.50;99.90;;;;;;4984373;28;19968;-78
2022/08/14 07:26:23;;;;;;;;;;;18.80;99.90;;;;;;4982367;28;19921;-79
2022/08/14 07:28:49;;;;;;;;;;;18.90;99.90;;;;;;4983306;28;19921;-79
2022/08/14 07:31:14;;;;;;;;;;;19.20;99.90;;;;;;4982716;28;20389;-78
2022/08/14 07:33:42;;;;;;;;;;;19.40;99.90;;;;;;4984668;28;19917;-77
2022/08/14 07:36:09;;;;;;;;;;;19.60;99.90;;;;;;4984874;28;20386;-77
2022/08/14 07:38:35;;;;;;;;;;;19.60;99.90;;;;;;4984925;28;19909;-77
2022/08/14 07:41:01;;;;;;;;;;;19.50;99.90;;;;;;4983072;28;19914;-77
2022/08/14 07:43:26;;;;;;;;;;;19.40;99.90;;;;;;4984764;28;19909;-77
2022/08/14 07:45:52;;;;;;;;;;;19.40;99.90;;;;;;4984246;28;19914;-82
2022/08/14 07:48:17;;;;;;;;;;;19.30;99.90;;;;;;4984430;28;20429;-76
2022/08/14 07:50:44;;;;;;;;;;;18.90;99.90;;;;;;4984282;28;20297;-76
2022/08/14 07:53:12;;;;;;;;;;;18.90;99.90;;;;;;4984736;28;19940;-77
2022/08/14 07:55:37;;;;;;;;;;;18.90;99.90;;;;;;4978288;28;20445;-77
2022/08/14 07:58:03;;;;;;;;;;;18.60;99.90;;;;;;4967024;28;20029;-77
2022/08/14 08:00:29;;;;;;;;;;;19.00;99.90;;;;;;4984625;28;20009;-75
2022/08/14 08:02:55;;;;;;;;;;;19.00;99.90;;;;;;4967292;28;20395;-77
2022/08/14 08:05:23;;;;;;;;;;;19.10;99.90;;;;;;4983886;28;19914;-76
2022/08/14 08:07:49;;;;;;;;;;;19.30;99.90;;;;;;4985248;28;20364;-76
2022/08/14 08:10:32;;;;;;;;;;;19.30;99.90;;;;;;4983377;28;19913;-77
2022/08/14 08:13:00;;;;;;;;;;;19.40;99.90;;;;;;4967076;28;19956;-78
2022/08/14 08:15:27;;;;;;;;;;;19.50;99.90;;;;;;4983160;28;19914;-79
2022/08/14 08:17:53;;;;;;;;;;;19.60;99.90;;;;;;4987747;28;20385;-78
2022/08/14 08:20:20;;;;;;;;;;;19.80;99.90;;;;;;4987248;28;19917;-80
2022/08/14 08:22:46;;;;;;;;;;;20.20;99.90;;;;;;4978422;28;19920;-78
2022/08/14 08:25:12;;;;;;;;;;;20.40;99.90;;;;;;4985331;28;20595;-77
2022/08/14 08:27:38;;;;;;;;;;;20.60;99.90;;;;;;4986498;28;20073;-77
2022/08/14 08:30:07;;;;;;;;;;;21.10;99.90;;;;;;4986102;28;20046;-77
2022/08/14 08:32:40;;;;;;;;;;;21.00;99.90;;;;;;4968981;28;19944;-78
2022/08/14 08:35:09;;;;;;;;;;;20.80;99.90;;;;;;4985476;28;20720;-78
2022/08/14 08:37:35;;;;;;;;;;;22.10;99.90;;;;;;4985967;28;19921;-78
2022/08/14 08:40:00;;;;;;;;;;;22.10;99.90;;;;;;4986751;28;20385;-78
2022/08/14 08:42:26;;;;;;;;;;;21.50;99.90;;;;;;4985106;28;19920;-78
2022/08/14 08:44:54;;;;;;;;;;;21.80;99.90;;;;;;4986419;28;19967;-78
2022/08/14 08:47:20;;;;;;;;;;;23.20;99.90;;;;;;4986925;28;19921;-78
2022/08/14 08:49:46;;;;;;;;;;;22.50;99.90;;;;;;4987125;28;19909;-78
2022/08/14 08:52:11;;;;;;;;;;;24.90;99.90;;;;;;4953075;28;19949;-78
2022/08/14 08:54:37;;;;;;;;;;;26.40;99.90;;;;;;4981495;28;20429;-78
2022/08/14 08:57:09;;;;;;;;;;;27.10;99.90;;;;;;4980989;28;19918;-78
2022/08/14 08:59:35;;;;;;;;;;;28.00;99.90;;;;;;4981559;28;20039;-79
2022/08/14 09:02:08;;;;;;;;;;;26.90;99.90;;;;;;4986530;28;20499;-78
2022/08/14 09:04:38;;;;;;;;;;;24.30;99.90;;;;;;4986432;28;19910;-78
2022/08/14 09:07:04;;;;;;;;;;;23.60;99.90;;;;;;4982805;28;19913;-78
2022/08/14 09:09:31;;;;;;;;;;;23.10;99.90;;;;;;4961856;28;19920;-78
2022/08/14 09:11:58;;;;;;;;;;;23.00;99.90;;;;;;4984413;28;19976;-78
2022/08/14 09:14:25;;;;;;;;;;;22.30;99.90;;;;;;4986822;28;19961;-79
2022/08/14 09:16:51;;;;;;;;;;;22.10;99.90;;;;;;4986283;28;19945;-83
2022/08/14 09:19:17;;;;;;;;;;;22.00;99.90;;;;;;4982027;28;20013;-84
2022/08/14 09:21:43;;;;;;;;;;;21.80;99.90;;;;;;4985618;28;20402;-83
2022/08/14 09:24:08;;;;;;;;;;;21.70;99.90;;;;;;4986158;28;19918;-83
2022/08/14 09:26:35;;;;;;;;;;;21.70;99.90;;;;;;4985511;28;19913;-83
2022/08/14 09:29:01;;;;;;;;;;;21.40;99.90;;;;;;4985982;28;19922;-83
2022/08/14 09:31:27;;;;;;;;;;;21.40;99.90;;;;;;4984450;28;20289;-83
2022/08/14 09:33:53;;;;;;;;;;;21.10;99.90;;;;;;4980490;28;19914;-84
2022/08/14 09:36:26;;;;;;;;;;;21.20;99.90;;;;;;4985584;28;19910;-83
2022/08/14 09:39:05;;;;;;;;;;;21.20;99.90;;;;;;4976537;28;19914;-83
2022/08/14 09:41:46;;;;;;;;;;;21.30;99.90;;;;;;4948787;28;19961;-83
2022/08/14 09:44:21;;;;;;;;;;;21.40;99.90;;;;;;4984006;28;19931;-82
2022/08/14 09:46:54;;;;;;;;;;;21.20;99.90;;;;;;4985572;28;20020;-84
2022/08/14 09:49:28;;;;;;;;;;;20.80;99.90;;;;;;4985933;28;19913;-83
2022/08/14 09:52:01;;;;;;;;;;;20.80;99.90;;;;;;4978648;28;19922;-82
2022/08/14 09:54:34;;;;;;;;;;;20.50;99.90;;;;;;4985898;28;20407;-81
2022/08/14 09:57:03;;;;;;;;;;;20.40;99.90;;;;;;4985717;28;19910;-83
2022/08/14 09:59:38;;;;;;;;;;;20.40;99.90;;;;;;4985604;28;19909;-83
2022/08/14 10:02:05;;;;;;;;;;;20.50;99.90;;;;;;4979654;28;20004;-83
2022/08/14 10:04:31;;;;;;;;;;;20.30;99.90;;;;;;4985705;28;19909;-84
2022/08/14 10:06:57;;;;;;;;;;;20.00;99.90;;;;;;4984823;28;19913;-83
2022/08/14 10:09:23;;;;;;;;;;;20.00;99.90;;;;;;4979055;28;19914;-84
2022/08/14 10:11:58;;;;;;;;;;;19.70;99.90;;;;;;4985282;28;19926;-84
2022/08/14 10:14:25;;;;;;;;;;;19.80;99.90;;;;;;4973427;28;19913;-84
2022/08/14 10:16:55;;;;;;;;;;;19.70;99.90;;;;;;4984993;28;19925;-83
2022/08/14 10:19:22;;;;;;;;;;;19.30;99.90;;;;;;4962921;28;19921;-83
2022/08/14 10:21:56;;;;;;;;;;;18.80;99.90;;;;;;4983589;28;19917;-84
2022/08/14 10:24:32;;;;;;;;;;;18.50;99.90;;;;;;4986130;28;19910;-84
2022/08/14 10:27:01;;;;;;;;;;;18.30;99.90;;;;;;4985517;28;19913;-84
2022/08/14 10:29:34;;;;;;;;;;;18.10;99.90;;;;;;4983020;28;20293;-85
2022/08/14 10:32:00;;;;;;;;;;;17.90;99.90;;;;;;4984690;28;19925;-83
2022/08/14 10:34:32;;;;;;;;;;;17.40;99.90;;;;;;4985937;28;20441;-83
2022/08/14 10:37:03;;;;;;;;;;;17.30;99.90;;;;;;4984984;28;19913;-85
2022/08/14 10:39:28;;;;;;;;;;;17.10;99.90;;;;;;4983712;28;19936;-84
2022/08/14 10:42:07;;;;;;;;;;;17.10;99.90;;;;;;4984793;28;20368;-83
2022/08/14 10:44:35;;;;;;;;;;;17.70;99.90;;;;;;4978776;28;19925;-84
2022/08/14 10:49:37;;;;;;;;;;;18.20;99.90;;;;;;5662532;23;20801;-96
2022/08/14 10:52:07;;;;;;;;;;;18.30;99.90;;;;;;4999746;23;20015;-83
2022/08/14 10:54:43;;;;;;;;;;;18.20;99.90;;;;;;4976511;28;19917;-84
2022/08/14 10:57:10;;;;;;;;;;;18.30;99.90;;;;;;4976421;28;19920;-84
2022/08/14 11:00:02;;;;;;;;;;;18.20;99.90;;;;;;4979751;28;19910;-84
2022/08/14 11:02:31;;;;;;;;;;;18.20;99.90;;;;;;4881231;29;19918;-84
2022/08/14 11:05:06;;;;;;;;;;;18.10;99.90;;;;;;4883712;29;19922;-85
2022/08/14 11:07:33;;;;;;;;;;;17.90;99.90;;;;;;4880056;29;19923;-84
2022/08/14 11:10:00;;;;;;;;;;;17.70;99.90;;;;;;4878919;29;19916;-84
2022/08/14 11:12:37;;;;;;;;;;;18.00;99.90;;;;;;4882136;29;19983;-84
2022/08/14 11:15:02;;;;;;;;;;;18.10;99.90;;;;;;4882850;29;19915;-85
2022/08/14 11:17:31;;;;;;;;;;;17.70;99.90;;;;;;4880837;29;20417;-84
2022/08/14 11:19:57;;;;;;;;;;;18.00;99.90;;;;;;4878743;29;19938;-85
2022/08/14 11:22:26;;;;;;;;;;;18.00;99.90;;;;;;4873682;29;19915;-84
2022/08/14 11:24:55;;;;;;;;;;;18.20;99.90;;;;;;4875819;29;20411;-83
2022/08/14 11:27:24;;;;;;;;;;;18.20;99.90;;;;;;4876222;29;19915;-83
2022/08/14 11:29:50;;;;;;;;;;;18.00;99.90;;;;;;4875790;29;19968;-84
2022/08/14 11:32:18;;;;;;;;;;;18.30;99.90;;;;;;4876461;29;19924;-84
2022/08/14 11:34:43;;;;;;;;;;;18.90;99.90;;;;;;4872323;29;19915;-84
2022/08/14 11:37:12;;;;;;;;;;;19.20;99.90;;;;;;4880616;29;19956;-83
2022/08/14 11:39:38;;;;;;;;;;;18.80;99.90;;;;;;4947835;28;19961;-84
2022/08/14 11:42:04;;;;;;;;;;;18.30;99.90;;;;;;4964250;28;20598;-87
2022/08/14 11:44:30;;;;;;;;;;;18.70;99.90;;;;;;4983561;28;19913;-85
2022/08/14 11:46:55;;;;;;;;;;;19.00;99.90;;;;;;4986829;28;19920;-85
2022/08/14 11:49:29;;;;;;;;;;;19.20;99.90;;;;;;4980674;28;19965;-84
2022/08/14 11:51:55;;;;;;;;;;;19.70;99.90;;;;;;4983329;28;19965;-77
2022/08/14 11:54:21;;;;;;;;;;;20.10;99.90;;;;;;4967366;28;19953;-78
2022/08/14 11:56:50;;;;;;;;;;;20.60;99.90;;;;;;4967735;28;19913;-77
2022/08/14 11:59:20;;;;;;;;;;;20.60;99.90;;;;;;4986309;28;19924;-78
2022/08/14 12:01:45;;;;;;;;;;;20.80;99.90;;;;;;4983494;28;20635;-78
2022/08/14 12:04:12;;;;;;;;;;;20.70;99.90;;;;;;4985128;28;19925;-78
2022/08/14 12:06:47;;;;;;;;;;;21.00;99.90;;;;;;4985960;28;20307;-77
2022/08/14 12:09:12;;;;;;;;;;;20.80;99.90;;;;;;4984140;28;19914;-77
2022/08/14 12:11:39;;;;;;;;;;;20.90;99.90;;;;;;4984392;28;20863;-78
2022/08/14 12:14:08;;;;;;;;;;;20.80;99.90;;;;;;4980153;28;19971;-77
2022/08/14 12:16:34;;;;;;;;;;;21.00;99.90;;;;;;4986154;28;19996;-78
2022/08/14 12:19:00;;;;;;;;;;;20.70;99.90;;;;;;4986669;28;19913;-77
2022/08/14 12:21:26;;;;;;;;;;;20.80;99.90;;;;;;4982259;28;19921;-78
2022/08/14 12:24:02;;;;;;;;;;;20.50;99.90;;;;;;4983881;28;20025;-77
2022/08/14 12:26:28;;;;;;;;;;;20.50;99.90;;;;;;4984386;28;20412;-77
2022/08/14 12:29:11;;;;;;;;;;;20.70;99.90;;;;;;4981428;28;19919;-77
2022/08/14 12:31:37;;;;;;;;;;;21.00;99.90;;;;;;4978581;28;19922;-77
2022/08/14 12:34:04;;;;;;;;;;;21.50;99.90;;;;;;4985289;28;20013;-77
2022/08/14 12:36:29;;;;;;;;;;;21.30;99.90;;;;;;4986060;28;20393;-77
2022/08/14 12:38:56;;;;;;;;;;;21.00;99.90;;;;;;4985417;28;19920;-77
2022/08/14 12:41:22;;;;;;;;;;;21.30;99.90;;;;;;4978491;28;19917;-78
2022/08/14 12:43:56;;;;;;;;;;;21.60;99.90;;;;;;4984820;28;19914;-77
2022/08/14 12:46:26;;;;;;;;;;;21.60;99.90;;;;;;4977414;28;19918;-77
2022/08/14 12:48:52;;;;;;;;;;;21.60;99.90;;;;;;4957748;28;20004;-77
2022/08/14 12:51:20;;;;;;;;;;;21.70;99.90;;;;;;4979742;28;19933;-77
2022/08/14 12:53:46;;;;;;;;;;;21.80;99.90;;;;;;4978068;28;19917;-77
2022/08/14 12:56:16;;;;;;;;;;;21.60;99.90;;;;;;4963920;28;20393;-77
2022/08/14 12:58:48;;;;;;;;;;;21.40;99.90;;;;;;4981316;28;20348;-77
2022/08/14 13:01:26;;;;;;;;;;;21.50;99.90;;;;;;4962329;28;20017;-78
2022/08/14 13:04:03;;;;;;;;;;;21.80;99.90;;;;;;4983588;28;19918;-77
2022/08/14 13:06:29;;;;;;;;;;;21.90;99.90;;;;;;4985386;28;20452;-77
2022/08/14 13:08:55;;;;;;;;;;;22.00;99.90;;;;;;4985314;28;19928;-77
2022/08/14 13:11:22;;;;;;;;;;;22.00;99.90;;;;;;4985735;28;19918;-77
2022/08/14 13:13:49;;;;;;;;;;;22.00;99.90;;;;;;4976699;28;19921;-77
2022/08/14 13:16:16;;;;;;;;;;;21.70;99.90;;;;;;4977651;28;20315;-77
2022/08/14 13:18:42;;;;;;;;;;;21.60;99.90;;;;;;4985866;28;19928;-76
2022/08/14 13:21:10;;;;;;;;;;;21.50;99.90;;;;;;4985400;28;20455;-77
2022/08/14 13:23:36;;;;;;;;;;;21.60;99.90;;;;;;4967912;28;19977;-77
2022/08/14 13:26:02;;;;;;;;;;;21.80;99.90;;;;;;4984541;28;20388;-77
2022/08/14 13:28:27;;;;;;;;;;;21.70;99.90;;;;;;4982196;28;19968;-77
2022/08/14 13:30:54;;;;;;;;;;;21.60;99.90;;;;;;4980297;28;19922;-77
2022/08/14 13:33:20;;;;;;;;;;;21.20;99.90;;;;;;4984152;28;19922;-77
2022/08/14 13:35:49;;;;;;;;;;;20.70;99.90;;;;;;4983223;28;19920;-78
2022/08/14 13:38:19;;;;;;;;;;;20.10;99.90;;;;;;4983718;28;20396;-77
2022/08/14 13:40:45;;;;;;;;;;;20.00;99.90;;;;;;4981163;28;20447;-77
2022/08/14 13:43:12;;;;;;;;;;;19.80;99.90;;;;;;4973283;28;20344;-77
2022/08/14 13:45:37;;;;;;;;;;;19.80;99.90;;;;;;4981204;28;19914;-77
2022/08/14 13:48:03;;;;;;;;;;;19.70;99.90;;;;;;4963242;28;20419;-76
2022/08/14 13:50:28;;;;;;;;;;;18.60;99.90;;;;;;4966887;28;19914;-84
2022/08/14 13:52:57;;;;;;;;;;;18.20;99.90;;;;;;4983753;28;20477;-83
2022/08/14 13:55:27;;;;;;;;;;;18.00;99.90;;;;;;4980183;28;19924;-82
2022/08/14 13:57:55;;;;;;;;;;;18.00;99.90;;;;;;4983287;28;19920;-83
2022/08/14 14:00:21;;;;;;;;;;;18.30;99.90;;;;;;4982245;28;19914;-83
2022/08/14 14:02:47;;;;;;;;;;;18.20;99.90;;;;;;4982803;28;19967;-83
2022/08/14 14:05:13;;;;;;;;;;;18.70;99.90;;;;;;4979978;28;19918;-83
2022/08/14 14:07:45;;;;;;;;;;;19.50;99.90;;;;;;4984919;28;19979;-83
2022/08/14 14:10:12;;;;;;;;;;;19.40;99.90;;;;;;4985160;28;20036;-82
2022/08/14 14:12:38;;;;;;;;;;;19.30;99.90;;;;;;4982083;28;20004;-83
2022/08/14 14:15:08;;;;;;;;;;;19.70;99.90;;;;;;4983198;28;19918;-82
2022/08/14 14:17:36;;;;;;;;;;;19.40;99.90;;;;;;4983053;28;19960;-82
2022/08/14 14:20:06;;;;;;;;;;;19.60;99.90;;;;;;4979627;28;21485;-81
2022/08/14 14:22:32;;;;;;;;;;;19.40;99.90;;;;;;4980236;28;19917;-82
2022/08/14 14:24:57;;;;;;;;;;;19.50;99.90;;;;;;4975517;28;20396;-81
2022/08/14 14:27:25;;;;;;;;;;;19.90;99.90;;;;;;4983787;28;19948;-81
2022/08/14 14:29:54;;;;;;;;;;;20.00;99.90;;;;;;4963032;28;20189;-86
2022/08/14 14:32:25;;;;;;;;;;;20.30;99.90;;;;;;4983323;28;20491;-86
2022/08/14 14:34:52;;;;;;;;;;;20.50;99.90;;;;;;4978057;28;19914;-85
2022/08/14 14:37:17;;;;;;;;;;;20.30;99.90;;;;;;4983025;28;19914;-86
2022/08/14 14:39:45;;;;;;;;;;;20.60;99.90;;;;;;4962188;28;20414;-85
2022/08/14 14:42:12;;;;;;;;;;;20.90;99.90;;;;;;4983426;28;19924;-85
2022/08/14 14:44:41;;;;;;;;;;;21.10;99.90;;;;;;4965369;28;20357;-85
2022/08/14 14:47:08;;;;;;;;;;;21.20;99.90;;;;;;4978087;28;20590;-86
2022/08/14 14:49:33;;;;;;;;;;;21.10;99.90;;;;;;4984447;28;19914;-85
2022/08/14 14:51:59;;;;;;;;;;;21.60;99.90;;;;;;4979013;28;19922;-76
2022/08/14 14:54:25;;;;;;;;;;;21.60;99.90;;;;;;4979006;28;19968;-76